Mineral Point, Pennsylvania
Current Conditions -  °F | °C
As of 8:54 AM on Sunday 21 Dec 2014 (Local Time) from KJST Reporting Station
Overcast Overcast  
Wind Chill: -8°   Ceiling: 1300
Heat Index: -4°   Visibility: 8mi
Dew Point: -7°   Wind: 6mph
Humidity: 81%   Direction: 300°WNW
Pressure: 30.23"   Gusts: NA
Location:  40.38°N, 78.84°W
Report Text: KJST 211354Z AUTO 30005KT 8SM BKN013 BKN018 OVC060 M04/M07 A3023 RMK AO2 SLP268 T10441072
Loading
Personal Weather Stations






























Interactive Weather Map New forecast layout! Learn more

10-Day Weather Forecast

Advertisements
Track Severe Weather on mobile